Terminal Aerodrome Forecast
Issued by NWS Sterling, VA

Current Version | Previous Version | Graphics & Text | Print | Product List | Glossary On
Versions: 1 2 3 4 5 6 7 8 9 10 11 12 13 14 15 16 17 18 19 20 21 22 23
000
FTUS41 KLWX 281720
TAFIAD
TAF
KIAD 281720Z 2818/0124 VRB04KT P6SM BKN150
     FM010600 VRB04KT P6SM OVC050
     FM011200 VRB04KT 2SM -SN BKN008 OVC050
     FM011800 17004KT 2SM -FZRAPL BKN008 OVC050=

USA.gov is the U.S. government's official web portal to all federal, state and local government web resources and services.